sensor_id;sensor_type;location;lat;lon;timestamp;P1;durP1;ratioP1;P2;durP2;ratioP2
57443;SDS011;43289;52.962;6.196;2022-08-01T00:00:09;12.82;;;7.65;;
57443;SDS011;43289;52.962;6.196;2022-08-01T00:02:35;17.92;;;10.65;;
57443;SDS011;43289;52.962;6.196;2022-08-01T00:05:03;19.45;;;9.35;;
57443;SDS011;43289;52.962;6.196;2022-08-01T00:07:33;20.65;;;9.77;;
57443;SDS011;43289;52.962;6.196;2022-08-01T00:09:59;18.30;;;10.05;;
57443;SDS011;43289;52.962;6.196;2022-08-01T00:12:25;19.77;;;10.52;;
57443;SDS011;43289;52.962;6.196;2022-08-01T00:14:51;21.08;;;9.35;;
57443;SDS011;43289;52.962;6.196;2022-08-01T00:17:16;17.70;;;10.50;;
57443;SDS011;43289;52.962;6.196;2022-08-01T00:19:42;15.60;;;9.45;;
57443;SDS011;43289;52.962;6.196;2022-08-01T00:22:08;15.07;;;8.85;;
57443;SDS011;43289;52.962;6.196;2022-08-01T00:24:33;14.50;;;8.95;;
57443;SDS011;43289;52.962;6.196;2022-08-01T00:26:59;17.40;;;9.43;;
57443;SDS011;43289;52.962;6.196;2022-08-01T00:29:25;20.50;;;10.50;;
57443;SDS011;43289;52.962;6.196;2022-08-01T00:31:50;15.38;;;8.93;;
57443;SDS011;43289;52.962;6.196;2022-08-01T00:34:16;16.67;;;9.27;;
57443;SDS011;43289;52.962;6.196;2022-08-01T00:36:41;14.93;;;8.55;;
57443;SDS011;43289;52.962;6.196;2022-08-01T00:39:08;21.27;;;10.10;;
57443;SDS011;43289;52.962;6.196;2022-08-01T00:41:33;13.00;;;7.07;;
57443;SDS011;43289;52.962;6.196;2022-08-01T00:44:01;15.70;;;8.07;;
57443;SDS011;43289;52.962;6.196;2022-08-01T00:46:28;13.30;;;8.15;;
57443;SDS011;43289;52.962;6.196;2022-08-01T00:48:54;17.77;;;8.35;;
57443;SDS011;43289;52.962;6.196;2022-08-01T00:51:20;18.23;;;9.68;;
57443;SDS011;43289;52.962;6.196;2022-08-01T00:53:49;19.02;;;9.70;;
57443;SDS011;43289;52.962;6.196;2022-08-01T00:56:16;15.40;;;8.15;;
57443;SDS011;43289;52.962;6.196;2022-08-01T00:58:43;19.35;;;10.25;;
57443;SDS011;43289;52.962;6.196;2022-08-01T01:01:09;15.73;;;9.07;;
57443;SDS011;43289;52.962;6.196;2022-08-01T01:03:35;18.50;;;9.15;;
57443;SDS011;43289;52.962;6.196;2022-08-01T01:08:42;17.70;;;8.52;;
57443;SDS011;43289;52.962;6.196;2022-08-01T01:11:36;15.20;;;7.82;;
57443;SDS011;43289;52.962;6.196;2022-08-01T01:14:23;16.30;;;8.10;;
57443;SDS011;43289;52.962;6.196;2022-08-01T01:16:58;18.15;;;8.30;;
57443;SDS011;43289;52.962;6.196;2022-08-01T01:19:28;13.10;;;7.38;;
57443;SDS011;43289;52.962;6.196;2022-08-01T01:25:25;21.48;;;10.68;;
57443;SDS011;43289;52.962;6.196;2022-08-01T01:31:09;18.35;;;9.43;;
57443;SDS011;43289;52.962;6.196;2022-08-01T01:33:36;15.13;;;7.65;;
57443;SDS011;43289;52.962;6.196;2022-08-01T01:36:05;12.63;;;7.20;;
57443;SDS011;43289;52.962;6.196;2022-08-01T01:38:36;14.23;;;8.25;;
57443;SDS011;43289;52.962;6.196;2022-08-01T01:41:07;19.80;;;8.65;;
57443;SDS011;43289;52.962;6.196;2022-08-01T01:43:35;23.00;;;8.07;;
57443;SDS011;43289;52.962;6.196;2022-08-01T01:46:02;15.02;;;7.35;;
57443;SDS011;43289;52.962;6.196;2022-08-01T01:48:29;13.45;;;7.40;;
57443;SDS011;43289;52.962;6.196;2022-08-01T01:50:57;13.70;;;8.15;;
57443;SDS011;43289;52.962;6.196;2022-08-01T01:53:25;12.27;;;6.95;;
57443;SDS011;43289;52.962;6.196;2022-08-01T01:55:53;14.63;;;7.90;;
57443;SDS011;43289;52.962;6.196;2022-08-01T01:58:20;14.88;;;7.78;;
57443;SDS011;43289;52.962;6.196;2022-08-01T02:00:48;11.40;;;7.18;;
57443;SDS011;43289;52.962;6.196;2022-08-01T02:03:16;12.02;;;7.05;;
57443;SDS011;43289;52.962;6.196;2022-08-01T02:05:42;14.48;;;6.03;;
57443;SDS011;43289;52.962;6.196;2022-08-01T02:08:09;7.60;;;4.55;;
57443;SDS011;43289;52.962;6.196;2022-08-01T02:10:36;11.02;;;4.90;;
57443;SDS011;43289;52.962;6.196;2022-08-01T02:13:05;10.32;;;4.20;;
57443;SDS011;43289;52.962;6.196;2022-08-01T02:15:31;9.82;;;4.65;;
57443;SDS011;43289;52.962;6.196;2022-08-01T02:17:59;8.00;;;4.47;;
57443;SDS011;43289;52.962;6.196;2022-08-01T02:20:27;11.77;;;3.92;;
57443;SDS011;43289;52.962;6.196;2022-08-01T02:23:02;10.60;;;4.38;;
57443;SDS011;43289;52.962;6.196;2022-08-01T02:28:07;6.30;;;2.80;;
57443;SDS011;43289;52.962;6.196;2022-08-01T02:30:39;7.75;;;3.25;;
57443;SDS011;43289;52.962;6.196;2022-08-01T02:33:11;6.85;;;3.70;;
57443;SDS011;43289;52.962;6.196;2022-08-01T02:35:41;8.20;;;4.18;;
57443;SDS011;43289;52.962;6.196;2022-08-01T02:38:09;8.82;;;3.78;;
57443;SDS011;43289;52.962;6.196;2022-08-01T02:40:37;9.63;;;3.58;;
57443;SDS011;43289;52.962;6.196;2022-08-01T02:43:05;7.78;;;4.10;;
57443;SDS011;43289;52.962;6.196;2022-08-01T02:45:34;10.55;;;4.18;;
57443;SDS011;43289;52.962;6.196;2022-08-01T02:48:05;10.43;;;3.47;;
57443;SDS011;43289;52.962;6.196;2022-08-01T02:50:34;8.60;;;3.97;;
57443;SDS011;43289;52.962;6.196;2022-08-01T02:53:02;8.60;;;3.28;;
57443;SDS011;43289;52.962;6.196;2022-08-01T02:55:31;4.80;;;2.88;;
57443;SDS011;43289;52.962;6.196;2022-08-01T02:57:58;6.57;;;2.45;;
57443;SDS011;43289;52.962;6.196;2022-08-01T03:00:26;10.80;;;3.30;;
57443;SDS011;43289;52.962;6.196;2022-08-01T03:02:53;7.55;;;3.35;;
57443;SDS011;43289;52.962;6.196;2022-08-01T03:05:20;7.22;;;3.88;;
57443;SDS011;43289;52.962;6.196;2022-08-01T03:07:47;8.52;;;3.30;;
57443;SDS011;43289;52.962;6.196;2022-08-01T03:10:14;9.07;;;3.38;;
57443;SDS011;43289;52.962;6.196;2022-08-01T03:12:41;9.27;;;4.35;;
57443;SDS011;43289;52.962;6.196;2022-08-01T03:15:09;11.05;;;3.80;;
57443;SDS011;43289;52.962;6.196;2022-08-01T03:17:37;10.90;;;4.25;;
57443;SDS011;43289;52.962;6.196;2022-08-01T03:20:06;17.63;;;6.47;;
57443;SDS011;43289;52.962;6.196;2022-08-01T03:22:33;9.35;;;4.65;;
57443;SDS011;43289;52.962;6.196;2022-08-01T03:25:01;12.63;;;4.78;;
57443;SDS011;43289;52.962;6.196;2022-08-01T03:27:28;14.40;;;4.28;;
57443;SDS011;43289;52.962;6.196;2022-08-01T03:29:55;10.55;;;3.85;;
57443;SDS011;43289;52.962;6.196;2022-08-01T03:32:22;8.77;;;4.15;;
57443;SDS011;43289;52.962;6.196;2022-08-01T03:34:50;9.30;;;3.97;;
57443;SDS011;43289;52.962;6.196;2022-08-01T03:37:21;11.18;;;4.88;;
57443;SDS011;43289;52.962;6.196;2022-08-01T03:40:55;8.27;;;4.28;;
57443;SDS011;43289;52.962;6.196;2022-08-01T03:43:02;11.88;;;3.83;;
57443;SDS011;43289;52.962;6.196;2022-08-01T03:45:35;7.18;;;3.70;;
57443;SDS011;43289;52.962;6.196;2022-08-01T03:48:13;15.63;;;6.63;;
57443;SDS011;43289;52.962;6.196;2022-08-01T03:50:43;13.80;;;4.65;;
57443;SDS011;43289;52.962;6.196;2022-08-01T03:53:11;11.18;;;4.65;;
57443;SDS011;43289;52.962;6.196;2022-08-01T03:55:39;12.27;;;5.72;;
57443;SDS011;43289;52.962;6.196;2022-08-01T03:58:07;11.43;;;5.10;;
57443;SDS011;43289;52.962;6.196;2022-08-01T04:00:35;14.70;;;6.03;;
57443;SDS011;43289;52.962;6.196;2022-08-01T04:03:03;16.92;;;6.93;;
57443;SDS011;43289;52.962;6.196;2022-08-01T04:05:30;13.88;;;5.70;;
57443;SDS011;43289;52.962;6.196;2022-08-01T04:07:56;12.40;;;5.78;;
57443;SDS011;43289;52.962;6.196;2022-08-01T04:10:22;9.50;;;5.05;;
57443;SDS011;43289;52.962;6.196;2022-08-01T04:12:48;15.52;;;5.93;;
57443;SDS011;43289;52.962;6.196;2022-08-01T04:15:14;12.10;;;4.93;;
57443;SDS011;43289;52.962;6.196;2022-08-01T04:17:40;14.07;;;5.60;;
57443;SDS011;43289;52.962;6.196;2022-08-01T04:20:05;13.90;;;5.97;;
57443;SDS011;43289;52.962;6.196;2022-08-01T04:22:32;14.50;;;5.60;;
57443;SDS011;43289;52.962;6.196;2022-08-01T04:24:58;16.08;;;5.70;;
57443;SDS011;43289;52.962;6.196;2022-08-01T04:27:32;16.83;;;5.63;;
57443;SDS011;43289;52.962;6.196;2022-08-01T04:30:03;13.15;;;5.80;;
57443;SDS011;43289;52.962;6.196;2022-08-01T04:32:29;14.90;;;5.70;;
57443;SDS011;43289;52.962;6.196;2022-08-01T04:34:59;21.55;;;7.10;;
57443;SDS011;43289;52.962;6.196;2022-08-01T04:37:30;16.05;;;5.53;;
57443;SDS011;43289;52.962;6.196;2022-08-01T04:39:56;18.40;;;6.25;;
57443;SDS011;43289;52.962;6.196;2022-08-01T04:42:24;15.68;;;4.88;;
57443;SDS011;43289;52.962;6.196;2022-08-01T04:44:50;14.85;;;6.38;;
57443;SDS011;43289;52.962;6.196;2022-08-01T04:47:15;10.35;;;4.80;;
57443;SDS011;43289;52.962;6.196;2022-08-01T04:49:42;13.95;;;5.60;;
57443;SDS011;43289;52.962;6.196;2022-08-01T04:52:10;25.30;;;5.78;;
57443;SDS011;43289;52.962;6.196;2022-08-01T04:54:36;19.25;;;6.47;;
57443;SDS011;43289;52.962;6.196;2022-08-01T04:57:02;22.67;;;7.53;;
57443;SDS011;43289;52.962;6.196;2022-08-01T04:59:29;15.73;;;5.15;;
57443;SDS011;43289;52.962;6.196;2022-08-01T05:02:09;14.30;;;5.57;;
57443;SDS011;43289;52.962;6.196;2022-08-01T05:07:07;22.92;;;6.88;;
57443;SDS011;43289;52.962;6.196;2022-08-01T05:09:33;15.38;;;5.97;;
57443;SDS011;43289;52.962;6.196;2022-08-01T05:12:00;16.48;;;5.25;;
57443;SDS011;43289;52.962;6.196;2022-08-01T05:14:28;15.57;;;4.72;;
57443;SDS011;43289;52.962;6.196;2022-08-01T05:16:56;16.38;;;4.75;;
57443;SDS011;43289;52.962;6.196;2022-08-01T05:19:31;16.70;;;5.72;;
57443;SDS011;43289;52.962;6.196;2022-08-01T05:21:58;15.52;;;5.18;;
57443;SDS011;43289;52.962;6.196;2022-08-01T05:24:25;16.90;;;4.45;;
57443;SDS011;43289;52.962;6.196;2022-08-01T05:26:53;20.42;;;5.10;;
57443;SDS011;43289;52.962;6.196;2022-08-01T05:29:21;15.75;;;5.25;;
57443;SDS011;43289;52.962;6.196;2022-08-01T05:31:46;16.58;;;5.10;;
57443;SDS011;43289;52.962;6.196;2022-08-01T05:34:12;16.90;;;4.68;;
57443;SDS011;43289;52.962;6.196;2022-08-01T05:36:38;18.48;;;5.30;;
57443;SDS011;43289;52.962;6.196;2022-08-01T05:39:04;17.48;;;4.78;;
57443;SDS011;43289;52.962;6.196;2022-08-01T05:41:29;26.02;;;5.25;;
57443;SDS011;43289;52.962;6.196;2022-08-01T05:43:55;13.07;;;4.35;;
57443;SDS011;43289;52.962;6.196;2022-08-01T05:46:21;20.92;;;5.22;;
57443;SDS011;43289;52.962;6.196;2022-08-01T05:48:47;18.02;;;5.28;;
57443;SDS011;43289;52.962;6.196;2022-08-01T05:51:12;17.42;;;5.75;;
57443;SDS011;43289;52.962;6.196;2022-08-01T05:53:38;20.50;;;5.45;;
57443;SDS011;43289;52.962;6.196;2022-08-01T05:56:04;17.27;;;5.10;;
57443;SDS011;43289;52.962;6.196;2022-08-01T05:58:30;21.45;;;5.10;;
57443;SDS011;43289;52.962;6.196;2022-08-01T06:00:57;16.73;;;4.57;;
57443;SDS011;43289;52.962;6.196;2022-08-01T06:03:23;19.20;;;5.13;;
57443;SDS011;43289;52.962;6.196;2022-08-01T06:05:51;17.95;;;4.63;;
57443;SDS011;43289;52.962;6.196;2022-08-01T06:08:17;17.67;;;6.47;;
57443;SDS011;43289;52.962;6.196;2022-08-01T06:10:42;23.02;;;5.15;;
57443;SDS011;43289;52.962;6.196;2022-08-01T06:13:09;14.75;;;4.82;;
57443;SDS011;43289;52.962;6.196;2022-08-01T06:15:35;12.23;;;4.85;;
57443;SDS011;43289;52.962;6.196;2022-08-01T06:18:00;17.63;;;4.47;;
57443;SDS011;43289;52.962;6.196;2022-08-01T06:20:26;20.33;;;5.75;;
57443;SDS011;43289;52.962;6.196;2022-08-01T06:22:51;17.65;;;5.25;;
57443;SDS011;43289;52.962;6.196;2022-08-01T06:25:18;16.80;;;5.07;;
57443;SDS011;43289;52.962;6.196;2022-08-01T06:27:44;20.95;;;5.82;;
57443;SDS011;43289;52.962;6.196;2022-08-01T06:30:09;17.80;;;6.03;;
57443;SDS011;43289;52.962;6.196;2022-08-01T06:32:35;24.65;;;6.18;;
57443;SDS011;43289;52.962;6.196;2022-08-01T06:35:01;13.20;;;4.70;;
57443;SDS011;43289;52.962;6.196;2022-08-01T06:37:28;13.05;;;4.63;;
57443;SDS011;43289;52.962;6.196;2022-08-01T06:39:55;11.68;;;4.50;;
57443;SDS011;43289;52.962;6.196;2022-08-01T06:42:20;20.88;;;5.70;;
57443;SDS011;43289;52.962;6.196;2022-08-01T06:44:46;13.77;;;4.50;;
57443;SDS011;43289;52.962;6.196;2022-08-01T06:47:12;11.48;;;4.25;;
57443;SDS011;43289;52.962;6.196;2022-08-01T06:49:37;19.58;;;5.25;;
57443;SDS011;43289;52.962;6.196;2022-08-01T06:52:03;14.07;;;4.72;;
57443;SDS011;43289;52.962;6.196;2022-08-01T06:54:29;17.58;;;5.47;;
57443;SDS011;43289;52.962;6.196;2022-08-01T06:56:54;15.00;;;4.75;;
57443;SDS011;43289;52.962;6.196;2022-08-01T06:59:20;19.75;;;5.57;;
57443;SDS011;43289;52.962;6.196;2022-08-01T07:01:45;16.10;;;4.40;;
57443;SDS011;43289;52.962;6.196;2022-08-01T07:04:11;14.27;;;4.43;;
57443;SDS011;43289;52.962;6.196;2022-08-01T07:06:37;13.50;;;4.72;;
57443;SDS011;43289;52.962;6.196;2022-08-01T07:09:02;12.85;;;4.80;;
57443;SDS011;43289;52.962;6.196;2022-08-01T07:11:28;19.02;;;5.25;;
57443;SDS011;43289;52.962;6.196;2022-08-01T07:13:54;22.00;;;4.93;;
57443;SDS011;43289;52.962;6.196;2022-08-01T07:16:19;22.42;;;6.40;;
57443;SDS011;43289;52.962;6.196;2022-08-01T07:18:47;17.13;;;4.93;;
57443;SDS011;43289;52.962;6.196;2022-08-01T07:21:12;16.50;;;4.97;;
57443;SDS011;43289;52.962;6.196;2022-08-01T07:23:38;17.23;;;5.40;;
57443;SDS011;43289;52.962;6.196;2022-08-01T07:26:04;19.75;;;4.80;;
57443;SDS011;43289;52.962;6.196;2022-08-01T07:28:30;15.65;;;5.03;;
57443;SDS011;43289;52.962;6.196;2022-08-01T07:30:56;18.67;;;5.10;;
57443;SDS011;43289;52.962;6.196;2022-08-01T07:33:22;14.50;;;4.40;;
57443;SDS011;43289;52.962;6.196;2022-08-01T07:35:47;20.23;;;4.47;;
57443;SDS011;43289;52.962;6.196;2022-08-01T07:38:13;13.90;;;4.78;;
57443;SDS011;43289;52.962;6.196;2022-08-01T07:40:41;15.15;;;3.70;;
57443;SDS011;43289;52.962;6.196;2022-08-01T07:43:08;16.35;;;4.43;;
57443;SDS011;43289;52.962;6.196;2022-08-01T07:45:34;19.48;;;4.60;;
57443;SDS011;43289;52.962;6.196;2022-08-01T07:48:06;16.90;;;4.47;;
57443;SDS011;43289;52.962;6.196;2022-08-01T07:50:32;20.38;;;4.28;;
57443;SDS011;43289;52.962;6.196;2022-08-01T07:52:58;15.18;;;4.90;;
57443;SDS011;43289;52.962;6.196;2022-08-01T07:55:24;14.25;;;4.10;;
57443;SDS011;43289;52.962;6.196;2022-08-01T07:57:51;14.15;;;4.40;;
57443;SDS011;43289;52.962;6.196;2022-08-01T08:00:17;11.77;;;3.65;;
57443;SDS011;43289;52.962;6.196;2022-08-01T08:02:43;15.30;;;4.28;;
57443;SDS011;43289;52.962;6.196;2022-08-01T08:05:09;13.10;;;3.53;;
57443;SDS011;43289;52.962;6.196;2022-08-01T08:07:36;16.27;;;4.07;;
57443;SDS011;43289;52.962;6.196;2022-08-01T08:10:02;12.80;;;3.95;;
57443;SDS011;43289;52.962;6.196;2022-08-01T08:12:29;14.85;;;3.85;;
57443;SDS011;43289;52.962;6.196;2022-08-01T08:14:54;12.95;;;3.58;;
57443;SDS011;43289;52.962;6.196;2022-08-01T08:17:20;15.90;;;3.58;;
57443;SDS011;43289;52.962;6.196;2022-08-01T08:19:46;13.80;;;3.20;;
57443;SDS011;43289;52.962;6.196;2022-08-01T08:22:12;16.83;;;4.07;;
57443;SDS011;43289;52.962;6.196;2022-08-01T08:24:37;11.27;;;3.90;;
57443;SDS011;43289;52.962;6.196;2022-08-01T08:27:03;10.25;;;3.03;;
57443;SDS011;43289;52.962;6.196;2022-08-01T08:29:29;13.63;;;3.17;;
57443;SDS011;43289;52.962;6.196;2022-08-01T08:31:57;8.80;;;3.30;;
57443;SDS011;43289;52.962;6.196;2022-08-01T08:34:24;12.85;;;3.28;;
57443;SDS011;43289;52.962;6.196;2022-08-01T08:36:51;8.05;;;3.10;;
57443;SDS011;43289;52.962;6.196;2022-08-01T08:39:18;12.45;;;3.08;;
57443;SDS011;43289;52.962;6.196;2022-08-01T08:41:43;11.85;;;3.80;;
57443;SDS011;43289;52.962;6.196;2022-08-01T08:44:09;11.43;;;3.05;;
57443;SDS011;43289;52.962;6.196;2022-08-01T08:46:56;11.82;;;3.05;;
57443;SDS011;43289;52.962;6.196;2022-08-01T08:49:23;13.40;;;2.95;;
57443;SDS011;43289;52.962;6.196;2022-08-01T08:52:03;11.10;;;2.95;;
57443;SDS011;43289;52.962;6.196;2022-08-01T08:54:29;12.45;;;3.35;;
57443;SDS011;43289;52.962;6.196;2022-08-01T08:56:57;13.75;;;3.55;;
57443;SDS011;43289;52.962;6.196;2022-08-01T08:59:24;7.15;;;2.67;;
57443;SDS011;43289;52.962;6.196;2022-08-01T09:01:50;8.43;;;2.50;;
57443;SDS011;43289;52.962;6.196;2022-08-01T09:04:16;9.07;;;2.70;;
57443;SDS011;43289;52.962;6.196;2022-08-01T09:06:42;11.50;;;3.28;;
57443;SDS011;43289;52.962;6.196;2022-08-01T09:09:08;8.68;;;2.70;;
57443;SDS011;43289;52.962;6.196;2022-08-01T09:11:34;13.23;;;3.15;;
57443;SDS011;43289;52.962;6.196;2022-08-01T09:14:22;9.85;;;2.75;;
57443;SDS011;43289;52.962;6.196;2022-08-01T09:17:01;13.45;;;3.45;;
57443;SDS011;43289;52.962;6.196;2022-08-01T09:19:35;6.97;;;2.13;;
57443;SDS011;43289;52.962;6.196;2022-08-01T09:22:05;12.57;;;2.88;;
57443;SDS011;43289;52.962;6.196;2022-08-01T09:24:35;7.57;;;3.08;;
57443;SDS011;43289;52.962;6.196;2022-08-01T09:27:19;8.82;;;2.33;;
57443;SDS011;43289;52.962;6.196;2022-08-01T09:29:45;10.23;;;3.30;;
57443;SDS011;43289;52.962;6.196;2022-08-01T09:32:11;7.05;;;2.50;;
57443;SDS011;43289;52.962;6.196;2022-08-01T09:34:37;9.98;;;2.60;;
57443;SDS011;43289;52.962;6.196;2022-08-01T09:37:03;6.38;;;2.13;;
57443;SDS011;43289;52.962;6.196;2022-08-01T09:39:35;7.45;;;2.53;;
57443;SDS011;43289;52.962;6.196;2022-08-01T09:42:25;9.38;;;2.70;;
57443;SDS011;43289;52.962;6.196;2022-08-01T09:44:52;9.60;;;2.35;;
57443;SDS011;43289;52.962;6.196;2022-08-01T09:47:18;11.60;;;2.92;;
57443;SDS011;43289;52.962;6.196;2022-08-01T09:49:52;8.38;;;2.33;;
57443;SDS011;43289;52.962;6.196;2022-08-01T09:52:21;8.10;;;2.47;;
57443;SDS011;43289;52.962;6.196;2022-08-01T09:54:59;11.73;;;2.40;;
57443;SDS011;43289;52.962;6.196;2022-08-01T09:57:27;7.57;;;2.63;;
57443;SDS011;43289;52.962;6.196;2022-08-01T09:59:57;10.40;;;2.75;;
57443;SDS011;43289;52.962;6.196;2022-08-01T10:02:34;6.28;;;2.00;;
57443;SDS011;43289;52.962;6.196;2022-08-01T10:05:03;11.90;;;2.10;;
57443;SDS011;43289;52.962;6.196;2022-08-01T10:07:34;8.30;;;2.58;;
57443;SDS011;43289;52.962;6.196;2022-08-01T10:10:14;11.70;;;2.58;;
57443;SDS011;43289;52.962;6.196;2022-08-01T10:12:40;7.47;;;2.35;;
57443;SDS011;43289;52.962;6.196;2022-08-01T10:15:08;6.90;;;2.33;;
57443;SDS011;43289;52.962;6.196;2022-08-01T10:17:36;7.05;;;2.80;;
57443;SDS011;43289;52.962;6.196;2022-08-01T10:20:04;10.52;;;3.05;;
57443;SDS011;43289;52.962;6.196;2022-08-01T10:22:38;7.97;;;2.75;;
57443;SDS011;43289;52.962;6.196;2022-08-01T10:25:05;6.55;;;2.50;;
57443;SDS011;43289;52.962;6.196;2022-08-01T10:27:32;9.30;;;2.08;;
57443;SDS011;43289;52.962;6.196;2022-08-01T10:30:01;9.50;;;2.80;;
57443;SDS011;43289;52.962;6.196;2022-08-01T10:32:32;8.98;;;2.22;;
57443;SDS011;43289;52.962;6.196;2022-08-01T10:34:59;9.32;;;2.45;;
57443;SDS011;43289;52.962;6.196;2022-08-01T10:37:26;5.97;;;1.88;;
57443;SDS011;43289;52.962;6.196;2022-08-01T10:39:58;9.75;;;2.88;;
57443;SDS011;43289;52.962;6.196;2022-08-01T10:42:24;7.85;;;2.33;;
57443;SDS011;43289;52.962;6.196;2022-08-01T10:44:50;4.80;;;2.40;;
57443;SDS011;43289;52.962;6.196;2022-08-01T10:47:23;8.50;;;2.45;;
57443;SDS011;43289;52.962;6.196;2022-08-01T10:52:29;11.63;;;2.35;;
57443;SDS011;43289;52.962;6.196;2022-08-01T10:55:02;9.38;;;2.80;;
57443;SDS011;43289;52.962;6.196;2022-08-01T10:57:44;9.10;;;2.13;;
57443;SDS011;43289;52.962;6.196;2022-08-01T11:00:17;9.18;;;2.30;;
57443;SDS011;43289;52.962;6.196;2022-08-01T11:02:56;7.85;;;2.10;;
57443;SDS011;43289;52.962;6.196;2022-08-01T11:05:28;9.32;;;2.58;;
57443;SDS011;43289;52.962;6.196;2022-08-01T11:07:57;8.45;;;2.60;;
57443;SDS011;43289;52.962;6.196;2022-08-01T11:10:37;7.43;;;2.55;;
57443;SDS011;43289;52.962;6.196;2022-08-01T11:13:08;13.10;;;2.33;;
57443;SDS011;43289;52.962;6.196;2022-08-01T11:15:36;13.75;;;3.47;;
57443;SDS011;43289;52.962;6.196;2022-08-01T11:18:03;9.32;;;2.15;;
57443;SDS011;43289;52.962;6.196;2022-08-01T11:20:56;6.38;;;2.00;;
57443;SDS011;43289;52.962;6.196;2022-08-01T11:23:24;7.60;;;2.10;;
57443;SDS011;43289;52.962;6.196;2022-08-01T11:28:19;8.95;;;2.10;;
57443;SDS011;43289;52.962;6.196;2022-08-01T11:30:48;5.18;;;2.28;;
57443;SDS011;43289;52.962;6.196;2022-08-01T11:33:16;7.38;;;2.22;;
57443;SDS011;43289;52.962;6.196;2022-08-01T11:36:16;4.78;;;1.75;;
57443;SDS011;43289;52.962;6.196;2022-08-01T11:38:35;4.65;;;1.77;;
57443;SDS011;43289;52.962;6.196;2022-08-01T11:49:21;7.68;;;2.00;;
57443;SDS011;43289;52.962;6.196;2022-08-01T11:51:48;5.75;;;1.88;;
57443;SDS011;43289;52.962;6.196;2022-08-01T11:54:24;3.45;;;1.20;;
57443;SDS011;43289;52.962;6.196;2022-08-01T11:56:55;7.28;;;2.58;;
57443;SDS011;43289;52.962;6.196;2022-08-01T11:59:22;6.03;;;1.73;;
57443;SDS011;43289;52.962;6.196;2022-08-01T12:01:48;5.43;;;2.05;;
57443;SDS011;43289;52.962;6.196;2022-08-01T12:04:14;4.90;;;1.67;;
57443;SDS011;43289;52.962;6.196;2022-08-01T12:06:39;6.30;;;2.22;;
57443;SDS011;43289;52.962;6.196;2022-08-01T12:09:21;11.55;;;2.30;;
57443;SDS011;43289;52.962;6.196;2022-08-01T12:11:48;9.38;;;1.85;;
57443;SDS011;43289;52.962;6.196;2022-08-01T12:14:20;9.50;;;2.30;;
57443;SDS011;43289;52.962;6.196;2022-08-01T12:16:53;3.00;;;1.40;;
57443;SDS011;43289;52.962;6.196;2022-08-01T12:19:23;5.60;;;1.92;;
57443;SDS011;43289;52.962;6.196;2022-08-01T12:22:07;6.85;;;2.05;;
57443;SDS011;43289;52.962;6.196;2022-08-01T12:24:37;5.43;;;1.42;;
57443;SDS011;43289;52.962;6.196;2022-08-01T12:27:04;7.65;;;2.30;;
57443;SDS011;43289;52.962;6.196;2022-08-01T12:29:32;5.47;;;1.70;;
57443;SDS011;43289;52.962;6.196;2022-08-01T12:32:00;6.50;;;2.53;;
57443;SDS011;43289;52.962;6.196;2022-08-01T12:34:27;5.88;;;1.80;;
57443;SDS011;43289;52.962;6.196;2022-08-01T12:36:57;8.48;;;1.73;;
57443;SDS011;43289;52.962;6.196;2022-08-01T12:39:33;5.82;;;1.67;;
57443;SDS011;43289;52.962;6.196;2022-08-01T12:42:00;7.22;;;2.50;;
57443;SDS011;43289;52.962;6.196;2022-08-01T12:44:29;8.43;;;2.47;;
57443;SDS011;43289;52.962;6.196;2022-08-01T12:46:56;10.23;;;2.42;;
57443;SDS011;43289;52.962;6.196;2022-08-01T12:49:22;5.95;;;1.77;;
57443;SDS011;43289;52.962;6.196;2022-08-01T12:51:48;10.10;;;3.08;;
57443;SDS011;43289;52.962;6.196;2022-08-01T12:54:15;5.75;;;1.92;;
57443;SDS011;43289;52.962;6.196;2022-08-01T12:56:40;7.03;;;1.73;;
57443;SDS011;43289;52.962;6.196;2022-08-01T12:59:19;6.10;;;2.05;;
57443;SDS011;43289;52.962;6.196;2022-08-01T13:01:55;6.38;;;1.98;;
57443;SDS011;43289;52.962;6.196;2022-08-01T13:04:23;8.60;;;2.03;;
57443;SDS011;43289;52.962;6.196;2022-08-01T13:06:53;4.82;;;2.28;;
57443;SDS011;43289;52.962;6.196;2022-08-01T13:09:19;5.50;;;1.80;;
57443;SDS011;43289;52.962;6.196;2022-08-01T13:11:44;5.18;;;1.75;;
57443;SDS011;43289;52.962;6.196;2022-08-01T13:14:27;7.22;;;1.85;;
57443;SDS011;43289;52.962;6.196;2022-08-01T13:16:54;4.93;;;2.10;;
57443;SDS011;43289;52.962;6.196;2022-08-01T13:19:19;5.53;;;1.70;;
57443;SDS011;43289;52.962;6.196;2022-08-01T13:21:54;7.63;;;1.80;;
57443;SDS011;43289;52.962;6.196;2022-08-01T13:24:25;6.20;;;2.08;;
57443;SDS011;43289;52.962;6.196;2022-08-01T13:26:56;6.03;;;1.75;;
57443;SDS011;43289;52.962;6.196;2022-08-01T13:29:39;5.57;;;1.85;;
57443;SDS011;43289;52.962;6.196;2022-08-01T13:32:14;4.35;;;1.55;;
57443;SDS011;43289;52.962;6.196;2022-08-01T13:34:40;4.75;;;1.55;;
57443;SDS011;43289;52.962;6.196;2022-08-01T13:37:06;4.90;;;1.45;;
57443;SDS011;43289;52.962;6.196;2022-08-01T13:39:32;6.13;;;1.60;;
57443;SDS011;43289;52.962;6.196;2022-08-01T13:42:05;5.32;;;1.55;;
57443;SDS011;43289;52.962;6.196;2022-08-01T13:44:31;4.30;;;1.85;;
57443;SDS011;43289;52.962;6.196;2022-08-01T13:46:57;4.70;;;1.40;;
57443;SDS011;43289;52.962;6.196;2022-08-01T13:49:23;8.40;;;1.92;;
57443;SDS011;43289;52.962;6.196;2022-08-01T13:51:49;5.68;;;1.70;;
57443;SDS011;43289;52.962;6.196;2022-08-01T13:54:15;8.40;;;2.08;;
57443;SDS011;43289;52.962;6.196;2022-08-01T13:56:42;5.38;;;1.60;;
57443;SDS011;43289;52.962;6.196;2022-08-01T13:59:08;8.15;;;1.60;;
57443;SDS011;43289;52.962;6.196;2022-08-01T14:01:34;4.35;;;1.30;;
57443;SDS011;43289;52.962;6.196;2022-08-01T14:04:01;5.82;;;1.77;;
57443;SDS011;43289;52.962;6.196;2022-08-01T14:06:28;7.85;;;1.80;;
57443;SDS011;43289;52.962;6.196;2022-08-01T14:08:54;4.47;;;1.65;;
57443;SDS011;43289;52.962;6.196;2022-08-01T14:11:20;4.18;;;1.45;;
57443;SDS011;43289;52.962;6.196;2022-08-01T14:13:46;5.90;;;1.77;;
57443;SDS011;43289;52.962;6.196;2022-08-01T14:16:12;4.72;;;1.50;;
57443;SDS011;43289;52.962;6.196;2022-08-01T14:18:38;4.82;;;2.03;;
57443;SDS011;43289;52.962;6.196;2022-08-01T14:21:05;5.20;;;1.77;;
57443;SDS011;43289;52.962;6.196;2022-08-01T14:23:31;8.23;;;2.00;;
57443;SDS011;43289;52.962;6.196;2022-08-01T14:25:57;6.82;;;2.00;;
57443;SDS011;43289;52.962;6.196;2022-08-01T14:28:23;4.53;;;1.77;;
57443;SDS011;43289;52.962;6.196;2022-08-01T14:30:50;7.72;;;1.80;;
57443;SDS011;43289;52.962;6.196;2022-08-01T14:33:16;6.07;;;1.80;;
57443;SDS011;43289;52.962;6.196;2022-08-01T14:35:42;5.65;;;1.70;;
57443;SDS011;43289;52.962;6.196;2022-08-01T14:38:08;9.10;;;2.20;;
57443;SDS011;43289;52.962;6.196;2022-08-01T14:40:34;5.65;;;1.77;;
57443;SDS011;43289;52.962;6.196;2022-08-01T14:43:13;5.40;;;1.75;;
57443;SDS011;43289;52.962;6.196;2022-08-01T14:45:38;4.18;;;1.60;;
57443;SDS011;43289;52.962;6.196;2022-08-01T14:48:04;4.45;;;1.63;;
57443;SDS011;43289;52.962;6.196;2022-08-01T14:50:30;6.32;;;1.88;;
57443;SDS011;43289;52.962;6.196;2022-08-01T14:52:55;5.63;;;2.05;;
57443;SDS011;43289;52.962;6.196;2022-08-01T14:55:21;6.05;;;1.70;;
57443;SDS011;43289;52.962;6.196;2022-08-01T14:57:50;3.35;;;1.50;;
57443;SDS011;43289;52.962;6.196;2022-08-01T15:00:15;4.75;;;1.58;;
57443;SDS011;43289;52.962;6.196;2022-08-01T15:02:41;5.32;;;1.65;;
57443;SDS011;43289;52.962;6.196;2022-08-01T15:05:14;5.43;;;1.73;;
57443;SDS011;43289;52.962;6.196;2022-08-01T15:07:40;4.53;;;1.60;;
57443;SDS011;43289;52.962;6.196;2022-08-01T15:10:06;6.93;;;1.60;;
57443;SDS011;43289;52.962;6.196;2022-08-01T15:12:35;10.30;;;1.85;;
57443;SDS011;43289;52.962;6.196;2022-08-01T15:15:01;6.07;;;1.75;;